Time,TemperatureF,DewpointF,PressureIn,WindDirection,WindDirectionDegrees,WindSpeedMPH,WindSpeedGustMPH,Humidity,HourlyPrecipIn,Conditions,Clouds,dailyrainin,SoftwareType,DateUTC
2013-03-12 00:21:00,40.0,1.0,30.12,North,-999,0.0,0.0,19,0.00,,,-99.99,,2013-03-12 07:21:00,
2013-03-12 00:32:00,40.0,1.0,30.12,North,-999,0.0,0.0,19,0.00,,,-99.99,,2013-03-12 07:32:00,
2013-03-12 01:22:00,42.0,0.0,30.12,North,-999,0.0,0.0,17,0.00,,,-99.99,,2013-03-12 08:22:00,
2013-03-12 01:32:00,42.0,0.0,30.12,North,-999,0.0,0.0,17,0.00,,,-99.99,,2013-03-12 08:32:00,
2013-03-12 02:22:00,42.0,5.0,30.11,North,-999,0.0,0.0,21,0.00,,,-99.99,,2013-03-12 09:22:00,
2013-03-12 02:32:00,42.0,5.0,30.11,North,-999,0.0,0.0,21,0.00,,,-99.99,,2013-03-12 09:32:00,
2013-03-12 03:22:00,43.0,11.0,30.10,North,-999,0.0,0.0,27,0.00,,,-99.99,,2013-03-12 10:22:00,
2013-03-12 03:32:00,43.0,11.0,30.10,North,-999,0.0,0.0,27,0.00,,,-99.99,,2013-03-12 10:32:00,
2013-03-12 04:22:00,42.0,10.0,30.08,North,-999,0.0,0.0,27,0.00,,,-99.99,,2013-03-12 11:22:00,
2013-03-12 04:32:00,42.0,10.0,30.08,North,-999,0.0,0.0,27,0.00,,,-99.99,,2013-03-12 11:32:00,
2013-03-12 05:22:00,43.0,10.0,30.08,North,0,0.0,2.0,25,0.00,,,-99.99,,2013-03-12 12:22:00,
2013-03-12 05:32:00,43.0,10.0,30.08,North,0,0.0,2.0,25,0.00,,,-99.99,,2013-03-12 12:32:00,
2013-03-12 06:22:00,43.0,10.0,30.09,North,-999,0.0,0.0,25,0.00,,,-99.99,,2013-03-12 13:22:00,
2013-03-12 06:32:00,43.0,10.0,30.09,North,-999,0.0,0.0,25,0.00,,,-99.99,,2013-03-12 13:32:00,
2013-03-12 07:22:00,42.0,10.0,30.09,North,0,0.0,2.0,26,0.00,,,-99.99,,2013-03-12 14:22:00,
2013-03-12 07:32:00,42.0,10.0,30.09,North,0,0.0,2.0,26,0.00,,,-99.99,,2013-03-12 14:32:00,
2013-03-12 08:22:00,45.0,8.0,30.11,North,0,0.0,1.0,22,0.00,,,-99.99,,2013-03-12 15:22:00,
2013-03-12 09:22:00,51.0,16.0,30.12,NE,40,3.0,6.0,24,0.00,,,-99.99,,2013-03-12 16:22:00,
2013-03-12 09:32:00,51.0,16.0,30.12,NE,40,3.0,6.0,24,0.00,,,-99.99,,2013-03-12 16:32:00,
2013-03-12 09:42:00,51.0,16.0,30.12,NE,40,3.0,6.0,24,0.00,,,-99.99,,2013-03-12 16:42:00,
2013-03-12 10:22:00,53.0,19.0,30.11,NE,40,2.0,7.0,26,0.00,,,-99.99,,2013-03-12 17:22:00,
2013-03-12 10:33:00,53.0,19.0,30.11,NE,40,2.0,7.0,26,0.00,,,-99.99,,2013-03-12 17:33:00,
2013-03-12 10:43:00,53.0,19.0,30.11,NE,40,2.0,7.0,26,0.00,,,-99.99,,2013-03-12 17:43:00,
2013-03-12 11:22:00,54.0,17.0,30.12,East,80,2.0,9.0,23,0.00,,,-99.99,,2013-03-12 18:22:00,
2013-03-12 11:33:00,54.0,17.0,30.12,East,80,2.0,9.0,23,0.00,,,-99.99,,2013-03-12 18:33:00,
2013-03-12 11:42:00,54.0,17.0,30.12,East,80,2.0,9.0,23,0.00,,,-99.99,,2013-03-12 18:42:00,
2013-03-12 12:22:00,56.0,18.0,30.11,East,90,1.0,9.0,22,0.00,,,-99.99,,2013-03-12 19:22:00,
2013-03-12 12:33:00,56.0,18.0,30.11,East,90,1.0,9.0,22,0.00,,,-99.99,,2013-03-12 19:33:00,
2013-03-12 12:43:00,56.0,18.0,30.11,East,90,1.0,9.0,22,0.00,,,-99.99,,2013-03-12 19:43:00,
2013-03-12 13:22:00,57.0,21.0,30.10,NE,40,8.0,9.0,24,0.00,,,-99.99,,2013-03-12 20:22:00,
2013-03-12 13:32:00,57.0,21.0,30.10,NE,40,8.0,9.0,24,0.00,,,-99.99,,2013-03-12 20:32:00,
2013-03-12 13:42:00,57.0,21.0,30.10,NE,40,8.0,9.0,24,0.00,,,-99.99,,2013-03-12 20:42:00,
2013-03-12 14:22:00,57.0,20.0,30.08,NNE,30,7.0,11.0,23,0.00,,,-99.99,,2013-03-12 21:22:00,
2013-03-12 14:32:00,57.0,20.0,30.08,NNE,30,7.0,11.0,23,0.00,,,-99.99,,2013-03-12 21:32:00,
2013-03-12 14:42:00,57.0,20.0,30.08,NNE,30,7.0,11.0,23,0.00,,,-99.99,,2013-03-12 21:42:00,
2013-03-12 15:22:00,58.0,22.0,30.06,NNE,30,5.0,10.0,25,0.00,,,-99.99,,2013-03-12 22:22:00,
2013-03-12 15:32:00,58.0,22.0,30.06,NNE,30,5.0,10.0,25,0.00,,,-99.99,,2013-03-12 22:32:00,
2013-03-12 15:42:00,58.0,22.0,30.06,NNE,30,5.0,10.0,25,0.00,,,-99.99,,2013-03-12 22:42:00,
2013-03-12 16:22:00,57.0,21.0,30.06,North,10,5.0,9.0,24,0.00,,,-99.99,,2013-03-12 23:22:00,
2013-03-12 16:34:00,57.0,21.0,30.06,North,10,5.0,9.0,24,0.00,,,-99.99,,2013-03-12 23:34:00,
2013-03-12 16:43:00,57.0,21.0,30.06,North,10,5.0,9.0,24,0.00,,,-99.99,,2013-03-12 23:43:00,
2013-03-12 17:22:00,56.0,21.0,30.06,NNE,30,4.0,8.0,25,0.00,,,-99.99,,2013-03-13 00:22:00,
2013-03-12 17:33:00,56.0,21.0,30.06,NNE,30,4.0,8.0,25,0.00,,,-99.99,,2013-03-13 00:33:00,
2013-03-12 17:42:00,56.0,21.0,30.06,NNE,30,4.0,8.0,25,0.00,,,-99.99,,2013-03-13 00:42:00,
2013-03-12 18:22:00,54.0,20.0,30.06,North,0,0.0,3.0,26,0.00,,,-99.99,,2013-03-13 01:22:00,
2013-03-12 18:32:00,54.0,20.0,30.06,North,0,0.0,3.0,26,0.00,,,-99.99,,2013-03-13 01:32:00,
2013-03-12 18:42:00,54.0,20.0,30.06,North,0,0.0,3.0,26,0.00,,,-99.99,,2013-03-13 01:42:00,
2013-03-12 19:22:00,49.0,21.0,30.07,North,-999,0.0,0.0,33,0.00,,,-99.99,,2013-03-13 02:22:00,
2013-03-12 19:32:00,49.0,21.0,30.07,North,-999,0.0,0.0,33,0.00,,,-99.99,,2013-03-13 02:32:00,
2013-03-12 19:42:00,49.0,21.0,30.07,North,-999,0.0,0.0,33,0.00,,,-99.99,,2013-03-13 02:42:00,
2013-03-12 20:22:00,45.0,25.0,30.08,North,-999,0.0,0.0,45,0.00,,,-99.99,,2013-03-13 03:22:00,
2013-03-12 20:32:00,45.0,25.0,30.08,North,-999,0.0,0.0,45,0.00,,,-99.99,,2013-03-13 03:32:00,
2013-03-12 20:42:00,45.0,25.0,30.08,North,-999,0.0,0.0,45,0.00,,,-99.99,,2013-03-13 03:42:00,
2013-03-12 21:22:00,44.0,25.0,30.10,WSW,240,1.0,2.0,47,0.00,,,-99.99,,2013-03-13 04:22:00,
2013-03-12 21:32:00,44.0,25.0,30.10,WSW,240,1.0,2.0,47,0.00,,,-99.99,,2013-03-13 04:32:00,
2013-03-12 22:22:00,43.0,24.0,30.12,SW,230,2.0,2.0,47,0.00,,,-99.99,,2013-03-13 05:22:00,
2013-03-12 22:32:00,43.0,24.0,30.12,SW,230,2.0,2.0,47,0.00,,,-99.99,,2013-03-13 05:32:00,
2013-03-12 23:22:00,44.0,22.0,30.14,North,-999,0.0,0.0,42,0.00,,,-99.99,,2013-03-13 06:22:00,
2013-03-12 23:32:00,44.0,22.0,30.14,North,-999,0.0,0.0,42,0.00,,,-99.99,,2013-03-13 06:32:00,